createdAt,value
2022-07-27T00:04:34.685Z,1.45
2022-07-27T00:09:35.730Z,1.73
2022-07-27T00:14:36.790Z,1.58
2022-07-27T00:19:38.067Z,1.42
2022-07-27T00:24:38.912Z,1.73
2022-07-27T00:29:41.025Z,1.87
2022-07-27T00:34:42.151Z,1.87
2022-07-27T00:39:43.056Z,1.70
2022-07-27T00:44:43.891Z,1.73
2022-07-27T00:49:45.004Z,2.12
2022-07-27T00:54:47.224Z,2.00
2022-07-27T00:59:48.348Z,1.70
2022-07-27T01:04:49.428Z,2.37
2022-07-27T01:09:57.367Z,2.00
2022-07-27T01:15:00.527Z,2.20
2022-07-27T01:20:01.415Z,2.08
2022-07-27T01:25:03.452Z,2.17
2022-07-27T01:30:25.648Z,2.13
2022-07-27T01:35:27.060Z,2.28
2022-07-27T01:40:28.363Z,2.37
2022-07-27T01:45:29.224Z,2.10
2022-07-27T01:50:30.498Z,1.65
2022-07-27T01:55:38.677Z,1.58
2022-07-27T02:00:41.103Z,2.03
2022-07-27T02:05:42.164Z,1.30
2022-07-27T02:12:04.698Z,1.45
2022-07-27T02:17:05.536Z,1.50
2022-07-27T02:22:07.702Z,1.30
2022-07-27T02:27:08.543Z,1.98
2022-07-27T02:32:09.849Z,1.98
2022-07-27T02:37:11.005Z,1.77
2022-07-27T02:42:11.870Z,1.45
2022-07-27T02:47:14.777Z,2.08
2022-07-27T02:52:15.767Z,1.70
2022-07-27T02:57:16.809Z,1.75
2022-07-27T03:02:17.862Z,1.55
2022-07-27T03:07:18.721Z,1.73
2022-07-27T03:12:19.616Z,1.50
2022-07-27T03:17:20.499Z,1.55
2022-07-27T03:22:21.338Z,2.00
2022-07-27T03:27:22.178Z,1.73
2022-07-27T03:32:23.929Z,1.77
2022-07-27T03:37:24.955Z,1.65
2022-07-27T03:42:25.890Z,1.87
2022-07-27T03:47:26.793Z,2.22
2022-07-27T03:52:27.878Z,2.30
2022-07-27T03:57:28.729Z,2.42
2022-07-27T04:02:29.755Z,1.98
2022-07-27T04:07:30.666Z,2.35
2022-07-27T04:12:31.936Z,1.90
2022-07-27T04:17:53.336Z,2.08
2022-07-27T04:22:57.589Z,2.60
2022-07-27T04:27:58.613Z,2.20
2022-07-27T04:32:59.651Z,2.42
2022-07-27T04:38:00.497Z,1.90
2022-07-27T04:43:03.558Z,2.60
2022-07-27T04:48:06.229Z,2.40
2022-07-27T04:53:08.077Z,1.87
2022-07-27T04:58:09.521Z,2.45
2022-07-27T05:03:10.673Z,2.03
2022-07-27T05:08:11.480Z,2.05
2022-07-27T05:13:12.358Z,2.22
2022-07-27T05:18:13.349Z,2.20
2022-07-27T05:23:15.067Z,2.25
2022-07-27T05:28:15.924Z,1.90
2022-07-27T05:33:17.028Z,2.10
2022-07-27T05:38:17.926Z,2.25
2022-07-27T05:43:18.813Z,2.28
2022-07-27T05:48:19.803Z,1.98
2022-07-27T05:53:20.974Z,1.98
2022-07-27T05:58:23.172Z,2.17
2022-07-27T06:08:27.410Z,2.25
2022-07-27T06:13:28.559Z,2.17
2022-07-27T06:18:29.632Z,1.92
2022-07-27T06:23:30.813Z,2.47
2022-07-27T06:28:31.907Z,1.95
2022-07-27T06:33:33.806Z,2.15
2022-07-27T06:38:36.940Z,1.92
2022-07-27T06:43:38.404Z,2.25
2022-07-27T06:48:40.155Z,2.22
2022-07-27T06:53:41.210Z,1.77
2022-07-27T06:58:42.125Z,2.55
2022-07-27T07:03:43.501Z,2.10
2022-07-27T07:08:44.368Z,2.00
2022-07-27T07:13:45.337Z,1.92
2022-07-27T07:18:51.768Z,2.10
2022-07-27T07:23:53.425Z,1.62
2022-07-27T07:28:54.739Z,2.22
2022-07-27T07:33:57.379Z,2.22
2022-07-27T07:38:59.230Z,2.97
2022-07-27T07:44:00.101Z,1.87
2022-07-27T07:49:01.829Z,2.78
2022-07-27T07:54:02.957Z,1.90
2022-07-27T07:59:04.252Z,1.92
2022-07-27T08:04:05.537Z,1.87
2022-07-27T08:09:06.826Z,1.95
2022-07-27T08:14:07.792Z,2.15
2022-07-27T08:19:09.634Z,2.78
2022-07-27T08:24:10.741Z,2.23
2022-07-27T08:29:14.329Z,1.73
2022-07-27T08:34:15.950Z,1.75
2022-07-27T08:39:52.649Z,1.95
2022-07-27T08:45:08.988Z,1.85
2022-07-27T08:50:24.896Z,1.70
2022-07-27T08:55:29.396Z,1.60
2022-07-27T09:00:32.486Z,2.00
2022-07-27T09:05:41.639Z,1.55
2022-07-27T09:10:43.372Z,1.92
2022-07-27T09:16:19.222Z,2.00
2022-07-27T09:21:23.661Z,1.30
2022-07-27T09:26:34.671Z,1.30
2022-07-27T09:31:42.089Z,2.45
2022-07-27T09:36:55.676Z,1.83
2022-07-27T09:42:01.057Z,2.42
2022-07-27T09:47:21.831Z,1.40
2022-07-27T09:52:28.260Z,2.15
2022-07-27T09:57:29.281Z,1.95
2022-07-27T10:02:30.623Z,2.00
2022-07-27T10:07:32.028Z,1.60
2022-07-27T10:12:33.005Z,1.60
2022-07-27T10:17:36.011Z,1.60
2022-07-27T10:22:54.546Z,1.70
2022-07-27T10:28:16.836Z,1.40
2022-07-27T10:33:42.965Z,1.67
2022-07-27T10:38:46.785Z,1.15
2022-07-27T10:43:49.795Z,1.35
2022-07-27T10:48:50.727Z,1.80
2022-07-27T11:02:55.583Z,1.42
2022-07-27T11:08:35.301Z,1.80
2022-07-27T11:13:38.961Z,1.20
2022-07-27T11:18:53.059Z,1.10
2022-07-27T11:24:18.096Z,1.73
2022-07-27T11:29:21.922Z,1.50
2022-07-27T11:34:36.115Z,1.40
2022-07-27T11:39:59.952Z,1.90
2022-07-27T11:45:01.965Z,1.55
2022-07-27T11:50:10.396Z,1.35
2022-07-27T11:55:12.954Z,1.45
2022-07-27T12:00:15.377Z,1.12
2022-07-27T12:05:17.195Z,1.08
2022-07-27T12:10:18.224Z,1.52
2022-07-27T12:15:45.941Z,1.27
2022-07-27T12:20:48.018Z,1.33
2022-07-27T12:25:48.916Z,1.05
2022-07-27T12:30:51.823Z,1.30
2022-07-27T12:35:53.000Z,1.10
2022-07-27T12:41:00.217Z,1.40
2022-07-27T12:46:13.504Z,1.08
2022-07-27T12:51:23.105Z,0.85
2022-07-27T12:56:27.017Z,0.80
2022-07-27T13:01:28.874Z,1.00
2022-07-27T13:06:30.300Z,1.37
2022-07-27T13:11:31.457Z,1.00
2022-07-27T13:16:32.702Z,1.17
2022-07-27T13:21:33.635Z,1.17
2022-07-27T13:26:34.618Z,1.23
2022-07-27T13:31:36.322Z,1.33
2022-07-27T13:36:39.946Z,1.10
2022-07-27T13:41:41.178Z,1.12
2022-07-27T13:46:42.318Z,1.00
2022-07-27T13:51:44.696Z,1.00
2022-07-27T13:56:45.626Z,0.90
2022-07-27T14:01:46.702Z,1.00
2022-07-27T14:06:48.363Z,0.90
2022-07-27T14:11:50.911Z,0.88
2022-07-27T14:16:54.351Z,0.90
2022-07-27T14:21:55.286Z,0.75
2022-07-27T14:26:56.950Z,1.00
2022-07-27T14:31:57.845Z,0.97
2022-07-27T14:36:58.829Z,1.20
2022-07-27T14:42:01.563Z,0.77
2022-07-27T14:47:03.177Z,0.80
2022-07-27T14:52:07.723Z,0.98
2022-07-27T14:57:08.887Z,1.17
2022-07-27T15:02:10.444Z,0.60
2022-07-27T15:07:11.433Z,0.65
2022-07-27T15:12:12.293Z,1.02
2022-07-27T15:17:13.641Z,0.75
2022-07-27T15:22:15.254Z,0.70
2022-07-27T15:27:16.152Z,0.70
2022-07-27T15:32:17.227Z,0.65
2022-07-27T15:37:18.136Z,0.82
2022-07-27T15:42:20.612Z,0.85
2022-07-27T15:52:22.799Z,0.80
2022-07-27T15:57:23.733Z,0.60
2022-07-27T16:02:25.837Z,0.82
2022-07-27T16:12:41.718Z,1.00
2022-07-27T16:17:42.782Z,0.77
2022-07-27T16:22:43.960Z,0.85
2022-07-27T16:27:44.862Z,0.85
2022-07-27T16:32:45.833Z,0.80
2022-07-27T16:37:46.691Z,0.80
2022-07-27T16:42:47.573Z,0.90
2022-07-27T16:47:48.517Z,0.80
2022-07-27T16:52:49.674Z,0.50
2022-07-27T16:57:50.671Z,1.00
2022-07-27T17:02:51.606Z,0.88
2022-07-27T17:07:53.497Z,0.90
2022-07-27T17:12:55.728Z,0.70
2022-07-27T17:17:59.389Z,0.80
2022-07-27T17:23:02.994Z,1.00
2022-07-27T17:33:05.132Z,0.90
2022-07-27T17:38:07.538Z,1.02
2022-07-27T17:43:08.548Z,0.60
2022-07-27T17:48:09.482Z,1.35
2022-07-27T17:53:11.061Z,0.70
2022-07-27T17:58:12.177Z,0.98
2022-07-27T18:03:16.822Z,0.50
2022-07-27T18:08:18.478Z,0.55
2022-07-27T18:13:19.516Z,0.60
2022-07-27T18:18:24.023Z,0.50
2022-07-27T18:23:30.055Z,0.77
2022-07-27T18:28:38.753Z,0.60
2022-07-27T18:33:45.025Z,0.88
2022-07-27T18:38:48.630Z,0.70
2022-07-27T18:43:52.310Z,0.62
2022-07-27T18:48:54.304Z,0.80
2022-07-27T18:53:55.388Z,0.77
2022-07-27T18:58:56.555Z,1.05
2022-07-27T19:03:57.584Z,0.95
2022-07-27T19:08:58.532Z,0.60
2022-07-27T19:13:59.387Z,0.80
2022-07-27T19:19:01.713Z,0.82
2022-07-27T19:24:03.674Z,0.93
2022-07-27T19:29:04.546Z,1.37
2022-07-27T19:34:05.435Z,1.00
2022-07-27T19:39:08.093Z,1.35
2022-07-27T19:44:09.273Z,1.00
2022-07-27T19:49:10.756Z,0.80
2022-07-27T19:54:12.889Z,0.87
2022-07-27T19:59:15.389Z,0.75
2022-07-27T20:04:16.680Z,1.00
2022-07-27T20:09:17.552Z,0.80
2022-07-27T20:14:18.466Z,1.00
2022-07-27T20:19:19.399Z,1.12
2022-07-27T20:24:20.538Z,0.93
2022-07-27T20:29:22.551Z,0.60
2022-07-27T20:34:24.406Z,0.88
2022-07-27T20:39:26.040Z,0.80
2022-07-27T20:44:27.155Z,0.88
2022-07-27T20:49:28.584Z,1.00
2022-07-27T20:54:29.931Z,1.27
2022-07-27T20:59:32.959Z,0.88
2022-07-27T21:04:33.900Z,1.55
2022-07-27T21:09:34.762Z,0.80
2022-07-27T21:14:35.641Z,0.75
2022-07-27T21:19:37.712Z,0.90
2022-07-27T21:24:38.713Z,0.90
2022-07-27T21:29:39.971Z,1.10
2022-07-27T21:34:41.117Z,0.85
2022-07-27T21:39:44.916Z,0.80
2022-07-27T21:44:46.041Z,0.80
2022-07-27T21:49:47.052Z,1.30
2022-07-27T21:54:47.892Z,1.10
2022-07-27T21:59:48.905Z,0.90
2022-07-27T22:04:49.835Z,1.48
2022-07-27T22:09:50.781Z,1.08
2022-07-27T22:14:52.376Z,1.17
2022-07-27T22:19:53.554Z,1.00
2022-07-27T22:24:54.510Z,0.80
2022-07-27T22:29:56.744Z,0.75
2022-07-27T22:34:57.764Z,1.07
2022-07-27T22:39:58.675Z,0.85
2022-07-27T22:44:59.638Z,0.90
2022-07-27T22:50:01.206Z,0.70
2022-07-27T22:55:02.294Z,0.80
2022-07-27T23:00:05.551Z,0.75
2022-07-27T23:05:06.900Z,1.00
2022-07-27T23:10:44.889Z,0.77
2022-07-27T23:15:46.538Z,1.00
2022-07-27T23:20:47.527Z,0.90
2022-07-27T23:25:48.821Z,0.77
2022-07-27T23:30:50.780Z,1.00
2022-07-27T23:35:51.668Z,1.15
2022-07-27T23:40:52.635Z,0.80
2022-07-27T23:45:53.511Z,0.88
2022-07-27T23:50:54.789Z,0.73
2022-07-27T23:55:55.988Z,1.20
